Little York, Illinois
Current Conditions -  °F | °C
As of 7:15 PM on Sunday 21 Dec 2014 (Local Time) from KGBG Reporting Station
Overcast Overcast  
Wind Chill: 29°   Ceiling: 4100
Heat Index: 36°   Visibility: 10mi
Dew Point: 32°   Wind: 9mph
Humidity: 85%   Direction: 140°SE
Pressure: 29.98"   Gusts: NA
Location:  41.01°N, 90.75°W
Report Text: KGBG 220115Z AUTO 14008KT 10SM OVC041 02/00 A2998 RMK AO2 T00230000
Loading
Personal Weather Stations






























Interactive Weather Map New forecast layout! Learn more

10-Day Weather Forecast

Advertisements
Track Severe Weather on mobile